sensor_id;sensor_type;location;lat;lon;timestamp;pressure;altitude;pressure_sealevel;temperature;humidity
74790;BME280;63318;52.406;13.416;2023-07-13T00:02:21;100886.80;;;18.06;60.01
74790;BME280;63318;52.406;13.416;2023-07-13T00:04:49;100892.29;;;18.02;60.12
74790;BME280;63318;52.406;13.416;2023-07-13T00:07:18;100889.02;;;17.98;60.15
74790;BME280;63318;52.406;13.416;2023-07-13T00:09:47;100892.53;;;17.95;60.25
74790;BME280;63318;52.406;13.416;2023-07-13T00:12:27;100889.67;;;17.91;60.44
74790;BME280;63318;52.406;13.416;2023-07-13T00:14:56;100892.23;;;17.86;60.75
74790;BME280;63318;52.406;13.416;2023-07-13T00:17:25;100892.35;;;17.82;60.63
74790;BME280;63318;52.406;13.416;2023-07-13T00:19:54;100897.36;;;17.79;60.75
74790;BME280;63318;52.406;13.416;2023-07-13T00:22:23;100900.00;;;17.75;60.76
74790;BME280;63318;52.406;13.416;2023-07-13T00:24:51;100901.42;;;17.72;60.93
74790;BME280;63318;52.406;13.416;2023-07-13T00:27:20;100905.44;;;17.69;60.96
74790;BME280;63318;52.406;13.416;2023-07-13T00:29:48;100906.63;;;17.66;61.04
74790;BME280;63318;52.406;13.416;2023-07-13T00:32:16;100905.45;;;17.64;61.18
74790;BME280;63318;52.406;13.416;2023-07-13T00:34:44;100906.23;;;17.62;61.27
74790;BME280;63318;52.406;13.416;2023-07-13T00:37:13;100899.13;;;17.60;61.35
74790;BME280;63318;52.406;13.416;2023-07-13T00:39:41;100898.55;;;17.59;61.38
74790;BME280;63318;52.406;13.416;2023-07-13T00:42:09;100900.56;;;17.57;61.53
74790;BME280;63318;52.406;13.416;2023-07-13T00:44:37;100899.20;;;17.55;61.85
74790;BME280;63318;52.406;13.416;2023-07-13T00:47:06;100899.76;;;17.53;61.88
74790;BME280;63318;52.406;13.416;2023-07-13T00:49:36;100899.05;;;17.51;61.94
74790;BME280;63318;52.406;13.416;2023-07-13T00:52:07;100896.91;;;17.48;62.10
74790;BME280;63318;52.406;13.416;2023-07-13T00:54:39;100899.50;;;17.46;62.40
74790;BME280;63318;52.406;13.416;2023-07-13T00:57:11;100903.68;;;17.42;62.46
74790;BME280;63318;52.406;13.416;2023-07-13T00:59:42;100908.84;;;17.38;62.40
74790;BME280;63318;52.406;13.416;2023-07-13T01:02:12;100913.70;;;17.34;62.64
74790;BME280;63318;52.406;13.416;2023-07-13T01:04:40;100918.16;;;17.30;62.78
74790;BME280;63318;52.406;13.416;2023-07-13T01:07:09;100920.66;;;17.27;62.96
74790;BME280;63318;52.406;13.416;2023-07-13T01:09:37;100917.86;;;17.23;63.19
74790;BME280;63318;52.406;13.416;2023-07-13T01:12:07;100911.42;;;17.20;63.29
74790;BME280;63318;52.406;13.416;2023-07-13T01:14:36;100911.38;;;17.16;63.40
74790;BME280;63318;52.406;13.416;2023-07-13T01:17:05;100915.13;;;17.13;63.45
74790;BME280;63318;52.406;13.416;2023-07-13T01:19:37;100910.92;;;17.10;63.64
74790;BME280;63318;52.406;13.416;2023-07-13T01:22:09;100909.83;;;17.06;63.79
74790;BME280;63318;52.406;13.416;2023-07-13T01:24:39;100915.66;;;17.03;63.85
74790;BME280;63318;52.406;13.416;2023-07-13T01:27:10;100914.41;;;16.99;64.12
74790;BME280;63318;52.406;13.416;2023-07-13T01:29:40;100913.41;;;16.96;64.25
74790;BME280;63318;52.406;13.416;2023-07-13T01:32:12;100915.71;;;16.93;64.53
74790;BME280;63318;52.406;13.416;2023-07-13T01:34:41;100912.08;;;16.90;64.52
74790;BME280;63318;52.406;13.416;2023-07-13T01:37:09;100911.54;;;16.86;64.52
74790;BME280;63318;52.406;13.416;2023-07-13T01:39:37;100906.18;;;16.82;64.61
74790;BME280;63318;52.406;13.416;2023-07-13T01:42:06;100911.25;;;16.78;64.72
74790;BME280;63318;52.406;13.416;2023-07-13T01:44:34;100912.54;;;16.76;64.94
74790;BME280;63318;52.406;13.416;2023-07-13T01:47:03;100909.77;;;16.74;65.02
74790;BME280;63318;52.406;13.416;2023-07-13T01:49:32;100901.92;;;16.71;64.98
74790;BME280;63318;52.406;13.416;2023-07-13T01:52:00;100905.75;;;16.70;65.30
74790;BME280;63318;52.406;13.416;2023-07-13T01:54:28;100911.61;;;16.68;65.42
74790;BME280;63318;52.406;13.416;2023-07-13T01:56:56;100913.88;;;16.67;65.48
74790;BME280;63318;52.406;13.416;2023-07-13T01:59:25;100914.34;;;16.67;65.68
74790;BME280;63318;52.406;13.416;2023-07-13T02:01:53;100909.40;;;16.66;65.64
74790;BME280;63318;52.406;13.416;2023-07-13T02:04:21;100907.29;;;16.65;65.63
74790;BME280;63318;52.406;13.416;2023-07-13T02:06:49;100909.88;;;16.65;65.63
74790;BME280;63318;52.406;13.416;2023-07-13T02:09:18;100910.13;;;16.64;65.63
74790;BME280;63318;52.406;13.416;2023-07-13T02:11:46;100907.99;;;16.61;65.63
74790;BME280;63318;52.406;13.416;2023-07-13T02:14:14;100909.90;;;16.58;65.66
74790;BME280;63318;52.406;13.416;2023-07-13T02:16:43;100909.46;;;16.55;65.64
74790;BME280;63318;52.406;13.416;2023-07-13T02:19:11;100897.61;;;16.52;65.87
74790;BME280;63318;52.406;13.416;2023-07-13T02:21:39;100884.66;;;16.48;65.99
74790;BME280;63318;52.406;13.416;2023-07-13T02:24:08;100883.49;;;16.45;66.09
74790;BME280;63318;52.406;13.416;2023-07-13T02:26:36;100884.63;;;16.41;66.22
74790;BME280;63318;52.406;13.416;2023-07-13T02:29:04;100885.48;;;16.37;66.45
74790;BME280;63318;52.406;13.416;2023-07-13T02:31:32;100883.84;;;16.32;66.71
74790;BME280;63318;52.406;13.416;2023-07-13T02:34:01;100888.67;;;16.29;66.82
74790;BME280;63318;52.406;13.416;2023-07-13T02:36:29;100889.69;;;16.26;66.88
74790;BME280;63318;52.406;13.416;2023-07-13T02:38:57;100898.55;;;16.22;66.85
74790;BME280;63318;52.406;13.416;2023-07-13T02:41:26;100899.10;;;16.20;67.02
74790;BME280;63318;52.406;13.416;2023-07-13T02:43:54;100899.65;;;16.17;67.06
74790;BME280;63318;52.406;13.416;2023-07-13T02:46:22;100907.84;;;16.14;67.12
74790;BME280;63318;52.406;13.416;2023-07-13T02:48:51;100910.95;;;16.09;67.32
74790;BME280;63318;52.406;13.416;2023-07-13T02:51:19;100916.98;;;16.05;67.50
74790;BME280;63318;52.406;13.416;2023-07-13T02:53:47;100918.17;;;16.00;67.60
74790;BME280;63318;52.406;13.416;2023-07-13T02:56:15;100920.65;;;15.96;67.64
74790;BME280;63318;52.406;13.416;2023-07-13T02:58:44;100925.64;;;15.93;67.86
74790;BME280;63318;52.406;13.416;2023-07-13T03:01:12;100930.49;;;15.90;67.94
74790;BME280;63318;52.406;13.416;2023-07-13T03:03:41;100932.34;;;15.87;68.04
74790;BME280;63318;52.406;13.416;2023-07-13T03:06:09;100930.91;;;15.85;68.18
74790;BME280;63318;52.406;13.416;2023-07-13T03:08:37;100931.36;;;15.82;68.12
74790;BME280;63318;52.406;13.416;2023-07-13T03:11:07;100933.22;;;15.81;68.28
74790;BME280;63318;52.406;13.416;2023-07-13T03:13:36;100931.11;;;15.80;68.34
74790;BME280;63318;52.406;13.416;2023-07-13T03:16:05;100934.77;;;15.79;68.43
74790;BME280;63318;52.406;13.416;2023-07-13T03:18:34;100933.25;;;15.79;68.74
74790;BME280;63318;52.406;13.416;2023-07-13T03:21:03;100932.90;;;15.80;68.80
74790;BME280;63318;52.406;13.416;2023-07-13T03:23:32;100930.99;;;15.80;68.84
74790;BME280;63318;52.406;13.416;2023-07-13T03:26:06;100931.71;;;15.81;68.92
74790;BME280;63318;52.406;13.416;2023-07-13T03:28:36;100933.92;;;15.82;69.01
74790;BME280;63318;52.406;13.416;2023-07-13T03:31:07;100934.02;;;15.84;68.90
74790;BME280;63318;52.406;13.416;2023-07-13T03:33:36;100934.33;;;15.85;68.97
74790;BME280;63318;52.406;13.416;2023-07-13T03:36:05;100932.98;;;15.85;69.10
74790;BME280;63318;52.406;13.416;2023-07-13T03:38:34;100932.02;;;15.86;69.03
74790;BME280;63318;52.406;13.416;2023-07-13T03:41:03;100933.11;;;15.87;69.16
74790;BME280;63318;52.406;13.416;2023-07-13T03:43:31;100940.89;;;15.88;69.19
74790;BME280;63318;52.406;13.416;2023-07-13T03:45:59;100943.11;;;15.89;69.19
74790;BME280;63318;52.406;13.416;2023-07-13T03:48:27;100941.65;;;15.90;69.27
74790;BME280;63318;52.406;13.416;2023-07-13T03:50:56;100943.30;;;15.91;69.30
74790;BME280;63318;52.406;13.416;2023-07-13T03:53:24;100948.61;;;15.92;69.37
74790;BME280;63318;52.406;13.416;2023-07-13T03:55:52;100952.14;;;15.93;69.47
74790;BME280;63318;52.406;13.416;2023-07-13T03:58:33;100954.30;;;15.94;69.39
74790;BME280;63318;52.406;13.416;2023-07-13T04:01:02;100950.81;;;15.95;69.78
74790;BME280;63318;52.406;13.416;2023-07-13T04:03:31;100952.15;;;15.95;69.56
74790;BME280;63318;52.406;13.416;2023-07-13T04:06:00;100955.55;;;15.96;69.41
74790;BME280;63318;52.406;13.416;2023-07-13T04:08:31;100955.54;;;15.97;69.67
74790;BME280;63318;52.406;13.416;2023-07-13T04:11:00;100959.10;;;15.99;69.64
74790;BME280;63318;52.406;13.416;2023-07-13T04:13:29;100966.18;;;16.01;69.78
74790;BME280;63318;52.406;13.416;2023-07-13T04:15:57;100962.45;;;16.03;69.60
74790;BME280;63318;52.406;13.416;2023-07-13T04:18:26;100962.03;;;16.05;69.64
74790;BME280;63318;52.406;13.416;2023-07-13T04:20:54;100965.12;;;16.08;69.73
74790;BME280;63318;52.406;13.416;2023-07-13T04:23:22;100969.02;;;16.10;69.70
74790;BME280;63318;52.406;13.416;2023-07-13T04:25:53;100971.21;;;16.13;69.71
74790;BME280;63318;52.406;13.416;2023-07-13T04:28:23;100969.65;;;16.16;69.86
74790;BME280;63318;52.406;13.416;2023-07-13T04:30:52;100965.54;;;16.19;69.78
74790;BME280;63318;52.406;13.416;2023-07-13T04:33:20;100971.83;;;16.22;69.79
74790;BME280;63318;52.406;13.416;2023-07-13T04:35:49;100968.73;;;16.27;69.86
74790;BME280;63318;52.406;13.416;2023-07-13T04:38:18;100975.39;;;16.31;69.75
74790;BME280;63318;52.406;13.416;2023-07-13T04:40:47;100980.70;;;16.35;69.86
74790;BME280;63318;52.406;13.416;2023-07-13T04:43:16;100980.50;;;16.39;70.01
74790;BME280;63318;52.406;13.416;2023-07-13T04:45:44;100984.90;;;16.44;69.83
74790;BME280;63318;52.406;13.416;2023-07-13T04:48:12;100989.58;;;16.50;69.86
74790;BME280;63318;52.406;13.416;2023-07-13T04:50:41;100993.59;;;16.56;70.02
74790;BME280;63318;52.406;13.416;2023-07-13T04:53:09;100990.04;;;16.62;70.09
74790;BME280;63318;52.406;13.416;2023-07-13T04:55:38;100990.10;;;16.69;70.22
74790;BME280;63318;52.406;13.416;2023-07-13T04:58:06;100990.66;;;16.75;70.17
74790;BME280;63318;52.406;13.416;2023-07-13T05:00:35;100992.84;;;16.81;70.19
74790;BME280;63318;52.406;13.416;2023-07-13T05:03:04;100993.16;;;16.87;70.04
74790;BME280;63318;52.406;13.416;2023-07-13T05:05:32;100997.84;;;16.95;69.96
74790;BME280;63318;52.406;13.416;2023-07-13T05:08:02;100999.45;;;17.01;69.89
74790;BME280;63318;52.406;13.416;2023-07-13T05:10:30;100999.48;;;17.09;69.91
74790;BME280;63318;52.406;13.416;2023-07-13T05:12:59;100999.47;;;17.15;69.73
74790;BME280;63318;52.406;13.416;2023-07-13T05:15:27;101001.16;;;17.22;69.72
74790;BME280;63318;52.406;13.416;2023-07-13T05:17:56;100998.49;;;17.30;69.81
74790;BME280;63318;52.406;13.416;2023-07-13T05:20:24;101003.11;;;17.37;69.76
74790;BME280;63318;52.406;13.416;2023-07-13T05:22:52;101003.58;;;17.44;69.54
74790;BME280;63318;52.406;13.416;2023-07-13T05:25:21;101002.14;;;17.51;69.46
74790;BME280;63318;52.406;13.416;2023-07-13T05:27:49;101003.27;;;17.59;69.16
74790;BME280;63318;52.406;13.416;2023-07-13T05:30:17;101003.56;;;17.67;69.02
74790;BME280;63318;52.406;13.416;2023-07-13T05:32:45;101006.74;;;17.75;68.87
74790;BME280;63318;52.406;13.416;2023-07-13T05:35:14;101007.83;;;17.84;68.86
74790;BME280;63318;52.406;13.416;2023-07-13T05:37:42;101009.21;;;17.94;68.55
74790;BME280;63318;52.406;13.416;2023-07-13T05:40:11;101011.74;;;18.07;68.30
74790;BME280;63318;52.406;13.416;2023-07-13T05:42:39;101012.69;;;18.21;68.22
74790;BME280;63318;52.406;13.416;2023-07-13T05:45:09;101013.99;;;18.36;67.97
74790;BME280;63318;52.406;13.416;2023-07-13T05:47:37;101014.15;;;18.53;67.72
74790;BME280;63318;52.406;13.416;2023-07-13T05:50:08;101011.71;;;18.70;67.32
74790;BME280;63318;52.406;13.416;2023-07-13T05:52:36;101015.81;;;18.90;67.12
74790;BME280;63318;52.406;13.416;2023-07-13T05:55:07;101009.90;;;19.10;66.72
74790;BME280;63318;52.406;13.416;2023-07-13T05:57:36;101008.90;;;19.31;66.36
74790;BME280;63318;52.406;13.416;2023-07-13T06:00:05;101010.98;;;19.55;66.09
74790;BME280;63318;52.406;13.416;2023-07-13T06:02:34;101002.45;;;19.77;65.42
74790;BME280;63318;52.406;13.416;2023-07-13T06:05:02;101000.05;;;20.01;64.99
74790;BME280;63318;52.406;13.416;2023-07-13T06:07:30;101004.96;;;20.28;64.50
74790;BME280;63318;52.406;13.416;2023-07-13T06:09:59;101005.40;;;20.55;63.91
74790;BME280;63318;52.406;13.416;2023-07-13T06:12:27;101008.20;;;20.83;63.31
74790;BME280;63318;52.406;13.416;2023-07-13T06:14:55;101007.46;;;21.12;62.84
74790;BME280;63318;52.406;13.416;2023-07-13T06:17:24;101006.68;;;21.40;62.37
74790;BME280;63318;52.406;13.416;2023-07-13T06:19:52;101008.04;;;21.69;61.08
74790;BME280;63318;52.406;13.416;2023-07-13T06:22:20;101003.70;;;21.95;60.17
74790;BME280;63318;52.406;13.416;2023-07-13T06:24:49;101002.35;;;22.23;59.95
74790;BME280;63318;52.406;13.416;2023-07-13T06:27:17;101006.20;;;22.51;59.10
74790;BME280;63318;52.406;13.416;2023-07-13T06:29:45;101000.23;;;22.79;58.26
74790;BME280;63318;52.406;13.416;2023-07-13T06:32:14;100999.16;;;23.06;57.79
74790;BME280;63318;52.406;13.416;2023-07-13T06:34:42;100993.02;;;23.32;56.75
74790;BME280;63318;52.406;13.416;2023-07-13T06:37:11;100994.18;;;23.59;55.95
74790;BME280;63318;52.406;13.416;2023-07-13T06:39:40;100992.09;;;23.87;55.63
74790;BME280;63318;52.406;13.416;2023-07-13T06:42:08;100996.48;;;24.15;54.99
74790;BME280;63318;52.406;13.416;2023-07-13T06:44:37;100997.34;;;24.44;54.59
74790;BME280;63318;52.406;13.416;2023-07-13T06:47:06;100997.38;;;24.70;54.41
74790;BME280;63318;52.406;13.416;2023-07-13T06:49:34;101001.22;;;24.96;53.38
74790;BME280;63318;52.406;13.416;2023-07-13T06:52:03;101005.49;;;25.22;52.83
74790;BME280;63318;52.406;13.416;2023-07-13T06:54:32;101005.69;;;25.45;52.06
74790;BME280;63318;52.406;13.416;2023-07-13T06:57:00;101008.11;;;25.66;51.72
74790;BME280;63318;52.406;13.416;2023-07-13T06:59:29;101001.89;;;25.88;50.79
74790;BME280;63318;52.406;13.416;2023-07-13T07:01:57;101005.16;;;26.09;50.86
74790;BME280;63318;52.406;13.416;2023-07-13T07:04:25;101004.69;;;26.31;49.69
74790;BME280;63318;52.406;13.416;2023-07-13T07:06:54;100996.30;;;26.50;48.98
74790;BME280;63318;52.406;13.416;2023-07-13T07:09:22;101000.73;;;26.71;48.67
74790;BME280;63318;52.406;13.416;2023-07-13T07:11:51;101004.30;;;26.90;48.09
74790;BME280;63318;52.406;13.416;2023-07-13T07:14:19;101003.63;;;27.10;47.90
74790;BME280;63318;52.406;13.416;2023-07-13T07:16:47;101004.17;;;27.30;47.15
74790;BME280;63318;52.406;13.416;2023-07-13T07:19:16;101007.67;;;27.52;46.89
74790;BME280;63318;52.406;13.416;2023-07-13T07:21:44;101005.21;;;27.72;46.43
74790;BME280;63318;52.406;13.416;2023-07-13T07:24:12;101008.00;;;27.88;44.89
74790;BME280;63318;52.406;13.416;2023-07-13T07:26:40;101006.19;;;28.02;44.73
74790;BME280;63318;52.406;13.416;2023-07-13T07:29:09;101002.30;;;28.14;44.04
74790;BME280;63318;52.406;13.416;2023-07-13T07:31:37;101002.31;;;28.27;43.91
74790;BME280;63318;52.406;13.416;2023-07-13T07:34:05;101003.48;;;28.41;43.76
74790;BME280;63318;52.406;13.416;2023-07-13T07:36:34;101009.40;;;28.55;43.38
74790;BME280;63318;52.406;13.416;2023-07-13T07:39:02;101007.73;;;28.71;42.76
74790;BME280;63318;52.406;13.416;2023-07-13T07:41:31;101008.77;;;28.90;42.77
74790;BME280;63318;52.406;13.416;2023-07-13T07:43:59;101010.05;;;29.02;42.00
74790;BME280;63318;52.406;13.416;2023-07-13T07:46:30;101005.64;;;29.11;41.57
74790;BME280;63318;52.406;13.416;2023-07-13T07:48:58;101008.08;;;29.22;41.91
74790;BME280;63318;52.406;13.416;2023-07-13T07:51:27;101011.55;;;29.35;41.73
74790;BME280;63318;52.406;13.416;2023-07-13T07:53:55;101010.25;;;29.44;40.89
74790;BME280;63318;52.406;13.416;2023-07-13T07:56:23;101010.82;;;29.54;40.65
74790;BME280;63318;52.406;13.416;2023-07-13T07:58:51;101011.43;;;29.70;40.06
74790;BME280;63318;52.406;13.416;2023-07-13T08:01:20;101014.45;;;29.88;40.34
74790;BME280;63318;52.406;13.416;2023-07-13T08:03:48;101016.02;;;30.11;40.06
74790;BME280;63318;52.406;13.416;2023-07-13T08:06:17;101014.61;;;30.24;39.62
74790;BME280;63318;52.406;13.416;2023-07-13T08:08:45;101015.41;;;30.16;39.14
74790;BME280;63318;52.406;13.416;2023-07-13T08:11:14;101014.90;;;30.02;39.34
74790;BME280;63318;52.406;13.416;2023-07-13T08:13:42;101018.15;;;30.00;40.00
74790;BME280;63318;52.406;13.416;2023-07-13T08:16:10;101018.55;;;29.98;40.04
74790;BME280;63318;52.406;13.416;2023-07-13T08:18:39;101019.64;;;30.03;39.77
74790;BME280;63318;52.406;13.416;2023-07-13T08:21:08;101020.73;;;29.94;39.48
74790;BME280;63318;52.406;13.416;2023-07-13T08:23:37;101014.34;;;29.73;39.41
74790;BME280;63318;52.406;13.416;2023-07-13T08:26:06;101019.45;;;29.51;39.17
74790;BME280;63318;52.406;13.416;2023-07-13T08:28:34;101018.52;;;29.22;39.14
74790;BME280;63318;52.406;13.416;2023-07-13T08:31:06;101024.38;;;29.05;39.74
74790;BME280;63318;52.406;13.416;2023-07-13T08:33:36;101024.04;;;29.03;40.01
74790;BME280;63318;52.406;13.416;2023-07-13T08:36:05;101026.13;;;29.09;39.79
74790;BME280;63318;52.406;13.416;2023-07-13T08:38:34;101026.95;;;29.09;39.60
74790;BME280;63318;52.406;13.416;2023-07-13T08:41:12;101026.35;;;28.98;39.58
74790;BME280;63318;52.406;13.416;2023-07-13T08:43:45;101027.50;;;29.06;40.18
74790;BME280;63318;52.406;13.416;2023-07-13T08:46:23;101027.55;;;29.12;39.59
74790;BME280;63318;52.406;13.416;2023-07-13T08:48:57;101025.85;;;29.25;38.69
74790;BME280;63318;52.406;13.416;2023-07-13T08:51:35;101028.77;;;29.42;39.21
74790;BME280;63318;52.406;13.416;2023-07-13T08:56:54;101036.08;;;29.87;39.12
74790;BME280;63318;52.406;13.416;2023-07-13T08:59:28;101039.57;;;30.07;39.10
74790;BME280;63318;52.406;13.416;2023-07-13T09:02:22;101043.05;;;30.24;38.59
74790;BME280;63318;52.406;13.416;2023-07-13T09:04:58;101028.42;;;30.39;37.19
74790;BME280;63318;52.406;13.416;2023-07-13T09:07:47;101033.87;;;30.48;36.99
74790;BME280;63318;52.406;13.416;2023-07-13T09:10:23;101035.32;;;30.61;36.38
74790;BME280;63318;52.406;13.416;2023-07-13T09:13:04;101039.23;;;30.74;36.40
74790;BME280;63318;52.406;13.416;2023-07-13T09:15:38;101039.81;;;30.91;35.71
74790;BME280;63318;52.406;13.416;2023-07-13T09:18:13;101036.88;;;30.96;35.53
74790;BME280;63318;52.406;13.416;2023-07-13T09:20:46;101037.45;;;30.96;35.38
74790;BME280;63318;52.406;13.416;2023-07-13T09:23:20;101033.41;;;30.91;34.94
74790;BME280;63318;52.406;13.416;2023-07-13T09:25:51;101030.44;;;30.88;34.70
74790;BME280;63318;52.406;13.416;2023-07-13T09:28:24;101033.02;;;30.83;34.97
74790;BME280;63318;52.406;13.416;2023-07-13T09:30:58;101037.01;;;30.71;34.50
74790;BME280;63318;52.406;13.416;2023-07-13T09:33:29;101026.31;;;30.44;34.21
74790;BME280;63318;52.406;13.416;2023-07-13T09:35:57;101031.33;;;30.24;34.50
74790;BME280;63318;52.406;13.416;2023-07-13T09:38:28;101034.32;;;30.06;34.91
74790;BME280;63318;52.406;13.416;2023-07-13T09:41:03;101032.96;;;29.88;34.63
74790;BME280;63318;52.406;13.416;2023-07-13T09:43:33;101042.69;;;29.59;35.06
74790;BME280;63318;52.406;13.416;2023-07-13T09:46:02;101041.67;;;29.38;35.34
74790;BME280;63318;52.406;13.416;2023-07-13T09:48:35;101038.61;;;29.19;35.70
74790;BME280;63318;52.406;13.416;2023-07-13T09:51:11;101043.29;;;29.07;35.57
74790;BME280;63318;52.406;13.416;2023-07-13T09:53:42;101041.73;;;28.99;36.16
74790;BME280;63318;52.406;13.416;2023-07-13T09:56:21;101043.23;;;28.95;36.25
74790;BME280;63318;52.406;13.416;2023-07-13T09:58:49;101042.50;;;28.81;36.08
74790;BME280;63318;52.406;13.416;2023-07-13T10:01:33;101042.80;;;28.71;36.00
74790;BME280;63318;52.406;13.416;2023-07-13T10:04:02;101047.89;;;28.61;36.56
74790;BME280;63318;52.406;13.416;2023-07-13T10:06:38;101048.36;;;28.56;36.63
74790;BME280;63318;52.406;13.416;2023-07-13T10:09:09;101045.00;;;28.56;37.15
74790;BME280;63318;52.406;13.416;2023-07-13T10:11:39;101045.49;;;28.50;37.40
74790;BME280;63318;52.406;13.416;2023-07-13T10:14:14;101043.79;;;28.38;37.41
74790;BME280;63318;52.406;13.416;2023-07-13T10:16:45;101050.83;;;28.22;37.28
74790;BME280;63318;52.406;13.416;2023-07-13T10:19:17;101053.30;;;28.06;37.60
74790;BME280;63318;52.406;13.416;2023-07-13T10:21:52;101054.02;;;27.92;37.56
74790;BME280;63318;52.406;13.416;2023-07-13T10:24:23;101056.44;;;27.82;37.62
74790;BME280;63318;52.406;13.416;2023-07-13T10:26:56;101057.70;;;27.73;37.54
74790;BME280;63318;52.406;13.416;2023-07-13T10:29:32;101059.72;;;27.63;37.95
74790;BME280;63318;52.406;13.416;2023-07-13T10:32:04;101056.85;;;27.57;38.05
74790;BME280;63318;52.406;13.416;2023-07-13T10:34:37;101055.86;;;27.75;37.87
74790;BME280;63318;52.406;13.416;2023-07-13T10:37:07;101053.42;;;28.05;37.71
74790;BME280;63318;52.406;13.416;2023-07-13T10:39:40;101048.73;;;28.35;37.16
74790;BME280;63318;52.406;13.416;2023-07-13T10:42:13;101051.71;;;28.55;37.52
74790;BME280;63318;52.406;13.416;2023-07-13T10:44:43;101055.29;;;28.64;37.14
74790;BME280;63318;52.406;13.416;2023-07-13T10:47:16;101055.05;;;28.60;36.79
74790;BME280;63318;52.406;13.416;2023-07-13T10:49:46;101055.87;;;28.50;36.33
74790;BME280;63318;52.406;13.416;2023-07-13T10:55:35;101058.69;;;28.30;36.54
74790;BME280;63318;52.406;13.416;2023-07-13T10:58:11;101049.08;;;28.26;36.71
74790;BME280;63318;52.406;13.416;2023-07-13T11:00:48;101043.24;;;28.40;36.60
74790;BME280;63318;52.406;13.416;2023-07-13T11:03:20;101043.66;;;28.64;36.81
74790;BME280;63318;52.406;13.416;2023-07-13T11:05:51;101043.20;;;28.84;36.03
74790;BME280;63318;52.406;13.416;2023-07-13T11:08:36;101042.20;;;29.04;36.04
74790;BME280;63318;52.406;13.416;2023-07-13T11:11:36;101037.41;;;29.20;35.41
74790;BME280;63318;52.406;13.416;2023-07-13T11:14:09;101034.26;;;29.39;34.87
74790;BME280;63318;52.406;13.416;2023-07-13T11:16:53;101035.26;;;29.51;34.80
74790;BME280;63318;52.406;13.416;2023-07-13T11:19:41;101030.02;;;29.61;34.47
74790;BME280;63318;52.406;13.416;2023-07-13T11:22:15;101029.70;;;29.70;33.37
74790;BME280;63318;52.406;13.416;2023-07-13T11:25:02;101031.81;;;29.76;34.49
74790;BME280;63318;52.406;13.416;2023-07-13T11:27:51;101030.61;;;29.90;33.87
74790;BME280;63318;52.406;13.416;2023-07-13T11:30:31;101031.26;;;30.00;34.28
74790;BME280;63318;52.406;13.416;2023-07-13T11:33:13;101031.08;;;30.09;33.48
74790;BME280;63318;52.406;13.416;2023-07-13T11:35:59;101021.13;;;30.17;32.70
74790;BME280;63318;52.406;13.416;2023-07-13T11:38:35;101017.40;;;30.24;31.78
74790;BME280;63318;52.406;13.416;2023-07-13T11:41:06;101019.38;;;30.24;31.66
74790;BME280;63318;52.406;13.416;2023-07-13T11:43:35;101022.58;;;30.25;31.97
74790;BME280;63318;52.406;13.416;2023-07-13T11:46:18;101027.92;;;30.29;32.11
74790;BME280;63318;52.406;13.416;2023-07-13T11:48:48;101018.57;;;30.28;31.91
74790;BME280;63318;52.406;13.416;2023-07-13T11:51:22;101020.23;;;30.29;32.77
74790;BME280;63318;52.406;13.416;2023-07-13T11:53:53;101017.66;;;30.35;32.42
74790;BME280;63318;52.406;13.416;2023-07-13T11:56:22;101014.67;;;30.45;32.56
74790;BME280;63318;52.406;13.416;2023-07-13T11:58:54;101014.46;;;30.54;32.06
74790;BME280;63318;52.406;13.416;2023-07-13T12:01:27;101014.85;;;30.63;32.06
74790;BME280;63318;52.406;13.416;2023-07-13T12:03:56;101017.02;;;30.77;32.55
74790;BME280;63318;52.406;13.416;2023-07-13T12:06:29;101012.70;;;30.83;32.32
74790;BME280;63318;52.406;13.416;2023-07-13T12:09:03;101011.20;;;30.74;32.51
74790;BME280;63318;52.406;13.416;2023-07-13T12:11:39;101005.52;;;30.68;32.00
74790;BME280;63318;52.406;13.416;2023-07-13T12:14:14;101007.48;;;30.69;31.38
74790;BME280;63318;52.406;13.416;2023-07-13T12:16:44;100998.96;;;30.72;31.16
74790;BME280;63318;52.406;13.416;2023-07-13T12:19:18;101004.38;;;30.72;31.15
74790;BME280;63318;52.406;13.416;2023-07-13T12:21:48;101009.21;;;30.70;31.16
74790;BME280;63318;52.406;13.416;2023-07-13T12:24:18;101003.14;;;30.72;31.45
74790;BME280;63318;52.406;13.416;2023-07-13T12:26:52;101000.53;;;30.73;30.96
74790;BME280;63318;52.406;13.416;2023-07-13T12:29:21;101004.61;;;30.69;31.30
74790;BME280;63318;52.406;13.416;2023-07-13T12:31:50;101008.63;;;30.65;31.81
74790;BME280;63318;52.406;13.416;2023-07-13T12:34:20;101007.20;;;30.62;31.66
74790;BME280;63318;52.406;13.416;2023-07-13T12:36:51;101008.23;;;30.49;31.77
74790;BME280;63318;52.406;13.416;2023-07-13T12:39:23;101008.05;;;30.33;31.51
74790;BME280;63318;52.406;13.416;2023-07-13T12:41:53;101007.09;;;30.25;31.62
74790;BME280;63318;52.406;13.416;2023-07-13T12:44:27;101005.65;;;30.18;31.49
74790;BME280;63318;52.406;13.416;2023-07-13T12:47:05;101005.23;;;30.18;31.70
74790;BME280;63318;52.406;13.416;2023-07-13T12:49:34;101007.08;;;30.22;32.30
74790;BME280;63318;52.406;13.416;2023-07-13T12:52:16;101005.78;;;30.26;32.24
74790;BME280;63318;52.406;13.416;2023-07-13T12:54:56;101001.64;;;30.32;32.01
74790;BME280;63318;52.406;13.416;2023-07-13T12:57:26;101003.49;;;30.26;31.71
74790;BME280;63318;52.406;13.416;2023-07-13T12:59:54;100998.30;;;30.21;31.55
74790;BME280;63318;52.406;13.416;2023-07-13T13:02:31;101005.89;;;30.16;31.89
74790;BME280;63318;52.406;13.416;2023-07-13T13:05:01;101013.98;;;30.15;32.47